Time;durP1;ratioP1;P1;durP2;ratioP2;P2;SDS_P1;SDS_P2;PMS_P1;PMS_P2;Temp;Humidity;BMP_temperature;BMP_pressure;BME280_temperature;BME280_humidity;BME280_pressure;Samples;Min_cycle;Max_cycle;Signal;HPM_P1;HPM_P2
2022/11/10 00:00:49;;;;;;;2.97;0.80;;;9.70;99.90;;;;;;4896542;29;20135;-78
2022/11/10 00:03:15;;;;;;;2.13;0.82;;;9.70;99.90;;;;;;4896937;29;20040;-77
2022/11/10 00:05:41;;;;;;;4.72;1.02;;;9.60;99.90;;;;;;4896523;29;20059;-77
2022/11/10 00:08:09;;;;;;;1.70;0.60;;;9.60;99.90;;;;;;4896897;29;20040;-77
2022/11/10 00:10:55;;;;;;;2.45;0.98;;;9.60;99.90;;;;;;4896044;29;20338;-77
2022/11/10 00:13:32;;;;;;;1.58;0.80;;;9.50;99.90;;;;;;4892930;29;20075;-77
2022/11/10 00:18:48;;;;;;;3.13;1.25;;;9.50;99.90;;;;;;4896282;29;20076;-77
2022/11/10 00:21:15;;;;;;;3.13;1.20;;;9.40;99.90;;;;;;4885107;29;20127;-78
2022/11/10 00:23:41;;;;;;;3.00;1.20;;;9.40;99.90;;;;;;4912350;29;20040;-78
2022/11/10 00:26:12;;;;;;;4.80;1.13;;;9.50;99.90;;;;;;4896022;29;20047;-76
2022/11/10 00:28:38;;;;;;;4.85;1.30;;;9.40;99.90;;;;;;4894378;29;20574;-77
2022/11/10 00:31:05;;;;;;;4.28;1.13;;;9.40;99.90;;;;;;4895800;29;20139;-77
2022/11/10 00:33:34;;;;;;;2.63;1.20;;;9.40;99.90;;;;;;4894011;29;20115;-77
2022/11/10 00:36:00;;;;;;;2.25;1.15;;;9.40;99.90;;;;;;4885019;29;20049;-77
2022/11/10 00:38:26;;;;;;;3.28;1.30;;;9.40;99.90;;;;;;4896006;29;20048;-78
2022/11/10 00:40:51;;;;;;;4.30;1.20;;;9.50;99.90;;;;;;4878575;29;20047;-78
2022/11/10 00:43:17;;;;;;;3.97;1.25;;;9.50;99.90;;;;;;4895296;29;20496;-77
2022/11/10 00:45:43;;;;;;;3.38;1.25;;;9.40;99.90;;;;;;4896026;29;20036;-77
2022/11/10 00:48:09;;;;;;;3.80;1.42;;;9.50;99.90;;;;;;4897248;29;20506;-78
2022/11/10 00:50:34;;;;;;;5.30;1.80;;;9.50;99.90;;;;;;4895380;29;20040;-78
2022/11/10 00:53:00;;;;;;;3.63;1.58;;;9.50;99.90;;;;;;4892363;29;20098;-78
2022/11/10 00:55:26;;;;;;;3.17;1.30;;;9.50;99.90;;;;;;4892016;29;20120;-78
2022/11/10 00:57:52;;;;;;;3.67;1.25;;;9.50;99.90;;;;;;4896001;29;20040;-77
2022/11/10 01:00:17;;;;;;;5.72;1.58;;;9.50;99.90;;;;;;4890280;29;20478;-77
2022/11/10 01:02:43;;;;;;;6.78;1.58;;;9.50;99.90;;;;;;4889953;29;20477;-76
2022/11/10 01:05:09;;;;;;;3.38;1.40;;;9.50;99.90;;;;;;4890695;29;20032;-76
2022/11/10 01:07:35;;;;;;;6.25;1.40;;;9.40;99.90;;;;;;4890530;29;20123;-77
2022/11/10 01:10:00;;;;;;;4.65;1.50;;;9.40;99.90;;;;;;4903753;29;20124;-76
2022/11/10 01:12:30;;;;;;;2.55;1.10;;;9.40;99.90;;;;;;4866126;29;20052;-75
2022/11/10 01:14:55;;;;;;;4.15;1.60;;;9.50;99.90;;;;;;4889893;29;20139;-76
2022/11/10 01:17:21;;;;;;;4.32;1.60;;;9.50;99.90;;;;;;4905226;29;20052;-76
2022/11/10 01:19:47;;;;;;;4.00;1.30;;;9.40;99.90;;;;;;4890111;29;20053;-76
2022/11/10 01:22:13;;;;;;;5.30;1.27;;;9.30;99.90;;;;;;4889724;29;20048;-77
2022/11/10 01:24:38;;;;;;;2.72;1.20;;;9.40;99.90;;;;;;4889955;29;20104;-77
2022/11/10 01:27:04;;;;;;;4.70;1.60;;;9.30;99.90;;;;;;4889600;29;20115;-77
2022/11/10 01:29:29;;;;;;;3.83;1.70;;;9.40;99.90;;;;;;4892141;29;20060;-76
2022/11/10 01:31:55;;;;;;;2.67;1.50;;;9.40;99.90;;;;;;4889087;29;20484;-76
2022/11/10 01:34:21;;;;;;;2.15;1.30;;;9.30;99.90;;;;;;4890235;29;20135;-76
2022/11/10 01:36:46;;;;;;;2.85;1.40;;;9.20;99.90;;;;;;4906825;29;20203;-76
2022/11/10 01:39:12;;;;;;;3.53;1.58;;;9.30;99.90;;;;;;4892141;29;20052;-76
2022/11/10 01:41:38;;;;;;;5.97;1.90;;;9.30;99.90;;;;;;4891038;29;20046;-70
2022/11/10 01:44:22;;;;;;;4.13;1.40;;;9.30;99.90;;;;;;4890859;29;20080;-69
2022/11/10 01:46:48;;;;;;;3.83;1.58;;;9.30;99.90;;;;;;4888939;29;20123;-70
2022/11/10 01:49:18;;;;;;;3.20;1.40;;;9.30;99.90;;;;;;4891083;29;20198;-71
2022/11/10 01:52:07;;;;;;;3.42;1.50;;;9.30;99.90;;;;;;4890605;29;20119;-70
2022/11/10 01:54:38;;;;;;;6.18;1.85;;;9.20;99.90;;;;;;4891302;29;20175;-71
2022/11/10 01:57:08;;;;;;;4.60;1.77;;;9.20;99.90;;;;;;4891428;29;20040;-70
2022/11/10 01:59:42;;;;;;;4.97;1.90;;;9.30;99.90;;;;;;4876377;29;20052;-71
2022/11/10 02:02:24;;;;;;;3.42;1.70;;;9.30;99.90;;;;;;4873518;29;20471;-71
2022/11/10 02:04:51;;;;;;;4.40;1.88;;;9.20;99.90;;;;;;4904775;29;20488;-71
2022/11/10 02:07:18;;;;;;;6.82;2.40;;;9.20;99.90;;;;;;4891075;29;20040;-71
2022/11/10 02:09:43;;;;;;;2.80;1.58;;;9.30;99.90;;;;;;4890891;29;20048;-71
2022/11/10 02:12:10;;;;;;;5.65;2.00;;;9.30;99.90;;;;;;4875075;29;20112;-71
2022/11/10 02:14:36;;;;;;;6.05;1.75;;;9.30;99.90;;;;;;4890838;29;20490;-71
2022/11/10 02:17:02;;;;;;;4.63;1.92;;;9.30;99.90;;;;;;4889111;29;20044;-71
2022/11/10 02:19:28;;;;;;;7.18;2.20;;;9.30;99.90;;;;;;4889276;29;20055;-71
2022/11/10 02:21:53;;;;;;;5.68;2.15;;;9.30;99.90;;;;;;4893336;29;20350;-71
2022/11/10 02:24:19;;;;;;;7.68;2.20;;;9.30;99.90;;;;;;4889900;29;20055;-71
2022/11/10 02:26:54;;;;;;;6.72;2.10;;;9.20;99.90;;;;;;4890400;29;20484;-70
2022/11/10 02:29:22;;;;;;;7.95;2.28;;;9.20;99.90;;;;;;4888483;29;20091;-71
2022/11/10 02:31:47;;;;;;;6.28;2.40;;;9.30;99.90;;;;;;4887241;29;20115;-71
2022/11/10 02:34:13;;;;;;;5.65;2.22;;;9.20;99.90;;;;;;4888996;29;20044;-71
2022/11/10 02:36:39;;;;;;;6.32;2.03;;;9.30;99.90;;;;;;4889638;29;20064;-71
2022/11/10 02:39:04;;;;;;;5.75;1.95;;;9.30;99.90;;;;;;4862750;29;20385;-71
2022/11/10 02:41:30;;;;;;;4.80;2.00;;;9.20;99.90;;;;;;4891583;29;20063;-71
2022/11/10 02:43:56;;;;;;;5.68;1.85;;;9.30;99.90;;;;;;4888499;29;20076;-71
2022/11/10 02:46:22;;;;;;;4.55;2.10;;;9.30;99.90;;;;;;4887455;29;20055;-71
2022/11/10 02:48:48;;;;;;;7.65;2.72;;;9.30;99.90;;;;;;4889577;29;20048;-71
2022/11/10 02:51:13;;;;;;;3.92;1.90;;;9.20;99.90;;;;;;4887820;29;20418;-71
2022/11/10 02:53:39;;;;;;;4.40;2.47;;;9.20;99.90;;;;;;4890762;29;20063;-70
2022/11/10 02:56:05;;;;;;;6.40;1.95;;;9.30;99.90;;;;;;4908214;29;20107;-70
2022/11/10 02:58:31;;;;;;;6.13;2.33;;;9.20;99.90;;;;;;4875570;29;20044;-70
2022/11/10 03:00:57;;;;;;;4.65;2.25;;;9.20;99.90;;;;;;4908131;29;20518;-70
2022/11/10 03:03:22;;;;;;;3.70;1.70;;;9.30;99.90;;;;;;4908253;29;20465;-70
2022/11/10 03:05:48;;;;;;;6.82;2.33;;;9.20;99.90;;;;;;4876769;29;20108;-70
2022/11/10 03:08:14;;;;;;;4.72;1.55;;;9.20;99.90;;;;;;4892878;29;20563;-70
2022/11/10 03:10:40;;;;;;;2.83;1.55;;;9.20;99.90;;;;;;4908390;29;20067;-70
2022/11/10 03:13:05;;;;;;;3.85;1.63;;;9.20;99.90;;;;;;4892566;29;20050;-71
2022/11/10 03:15:31;;;;;;;6.47;2.10;;;9.30;99.90;;;;;;4893911;29;20441;-70
2022/11/10 03:18:02;;;;;;;4.15;1.40;;;9.20;99.90;;;;;;4908193;29;20043;-71
2022/11/10 03:20:28;;;;;;;5.88;2.00;;;9.10;99.90;;;;;;4876698;29;20044;-71
2022/11/10 03:22:59;;;;;;;4.50;1.90;;;9.10;99.90;;;;;;4892602;29;20036;-71
2022/11/10 03:25:25;;;;;;;4.68;2.20;;;9.20;99.90;;;;;;4906806;29;20060;-70
2022/11/10 03:27:51;;;;;;;5.18;2.08;;;9.20;99.90;;;;;;4893263;29;20032;-71
2022/11/10 03:30:16;;;;;;;5.85;2.60;;;9.20;99.90;;;;;;4892064;29;20055;-71
2022/11/10 03:32:42;;;;;;;7.18;2.20;;;9.20;99.90;;;;;;4909113;29;20063;-71
2022/11/10 03:35:08;;;;;;;6.53;2.00;;;9.30;99.90;;;;;;4892296;29;20055;-71
2022/11/10 03:37:34;;;;;;;8.98;2.60;;;9.30;99.90;;;;;;4892701;29;20044;-71
2022/11/10 03:39:59;;;;;;;7.93;2.63;;;9.30;99.90;;;;;;4892713;29;20066;-71
2022/11/10 03:42:25;;;;;;;6.13;2.30;;;9.40;99.90;;;;;;4876945;29;20074;-71
2022/11/10 03:44:50;;;;;;;6.50;1.70;;;9.40;99.90;;;;;;4889206;29;20040;-71
2022/11/10 03:47:16;;;;;;;5.30;2.00;;;9.40;99.90;;;;;;4907311;29;20768;-71
2022/11/10 03:49:42;;;;;;;4.28;1.50;;;9.30;99.90;;;;;;4892485;29;20048;-72
2022/11/10 03:52:07;;;;;;;4.25;1.52;;;9.30;99.90;;;;;;4893056;29;20080;-71
2022/11/10 03:54:33;;;;;;;6.60;2.03;;;9.20;99.90;;;;;;4892792;29;20543;-71
2022/11/10 03:56:59;;;;;;;6.63;1.85;;;9.30;99.90;;;;;;4910563;29;20075;-70
2022/11/10 03:59:24;;;;;;;6.30;1.90;;;9.20;99.90;;;;;;4892209;29;20102;-71
2022/11/10 04:01:50;;;;;;;6.35;2.00;;;9.20;99.90;;;;;;4876032;29;20096;-70
2022/11/10 04:09:44;;;;;;;6.32;1.88;;;9.20;99.90;;;;;;4881157;29;20127;-71
2022/11/10 04:17:38;;;;;;;4.32;1.60;;;9.20;99.90;;;;;;4895932;29;20123;-70
2022/11/10 04:20:04;;;;;;;6.38;2.00;;;9.20;99.90;;;;;;4910185;29;20056;-76
2022/11/10 04:25:14;;;;;;;3.97;1.80;;;9.20;99.90;;;;;;4894462;29;20502;-77
2022/11/10 04:27:40;;;;;;;4.70;2.40;;;9.20;99.90;;;;;;4879250;29;20041;-76
2022/11/10 04:30:06;;;;;;;6.47;1.92;;;9.20;99.90;;;;;;4893494;29;20138;-76
2022/11/10 04:32:31;;;;;;;7.63;2.60;;;9.30;99.90;;;;;;4895900;29;20420;-77
2022/11/10 04:34:57;;;;;;;5.75;2.38;;;9.30;99.90;;;;;;4878251;29;20055;-78
2022/11/10 04:37:23;;;;;;;8.05;2.33;;;9.40;99.90;;;;;;4911192;29;20044;-77
2022/11/10 04:39:48;;;;;;;6.90;2.50;;;9.40;99.90;;;;;;4892509;29;20048;-78
2022/11/10 04:42:14;;;;;;;4.97;2.13;;;9.40;99.90;;;;;;4895642;29;20040;-77
2022/11/10 04:44:39;;;;;;;5.78;2.47;;;9.40;99.90;;;;;;4908862;29;20144;-77
2022/11/10 04:47:05;;;;;;;4.30;2.30;;;9.50;99.90;;;;;;4908254;29;20090;-77
2022/11/10 04:49:31;;;;;;;5.95;2.30;;;9.50;99.90;;;;;;4904306;29;20052;-77
2022/11/10 04:51:56;;;;;;;5.10;2.08;;;9.50;99.90;;;;;;4910747;29;20066;-77
2022/11/10 04:54:22;;;;;;;8.15;2.83;;;9.50;99.90;;;;;;4894548;29;20130;-78
2022/11/10 04:56:48;;;;;;;6.82;2.60;;;9.60;99.90;;;;;;4863737;29;20044;-77
2022/11/10 04:59:13;;;;;;;9.00;2.70;;;9.50;99.90;;;;;;4892674;29;20048;-77
2022/11/10 05:01:39;;;;;;;6.50;2.42;;;9.60;99.90;;;;;;4862843;29;20067;-77
2022/11/10 05:04:05;;;;;;;6.93;2.60;;;9.50;99.90;;;;;;4910184;29;20044;-77
2022/11/10 05:06:30;;;;;;;6.13;2.50;;;9.60;99.90;;;;;;4910221;29;20115;-77
2022/11/10 05:08:56;;;;;;;5.07;2.58;;;9.50;99.90;;;;;;4911220;29;20063;-77
2022/11/10 05:11:22;;;;;;;8.60;2.53;;;9.60;99.90;;;;;;4894863;29;20058;-77
2022/11/10 05:13:47;;;;;;;7.13;2.90;;;9.50;99.90;;;;;;4893383;29;20083;-77
2022/11/10 05:16:13;;;;;;;10.95;2.75;;;9.60;99.90;;;;;;4910237;29;20419;-78
2022/11/10 05:18:40;;;;;;;7.40;2.90;;;9.60;99.90;;;;;;4908618;29;20055;-77
2022/11/10 05:21:05;;;;;;;8.23;3.13;;;9.60;99.90;;;;;;4894350;29;20404;-77
2022/11/10 05:23:37;;;;;;;7.90;2.80;;;9.60;99.90;;;;;;4879836;29;20048;-77
2022/11/10 05:26:12;;;;;;;9.25;3.05;;;9.60;99.90;;;;;;4893917;29;20075;-77
2022/11/10 05:28:39;;;;;;;6.68;2.42;;;9.60;99.90;;;;;;4894334;29;20049;-77
2022/11/10 05:31:05;;;;;;;6.18;2.50;;;9.60;99.90;;;;;;4906784;29;20515;-76
2022/11/10 05:33:33;;;;;;;9.07;2.60;;;9.60;99.90;;;;;;4907572;29;20052;-77
2022/11/10 05:35:58;;;;;;;9.43;2.80;;;9.60;99.90;;;;;;4894796;29;20079;-76
2022/11/10 05:38:24;;;;;;;5.70;2.58;;;9.70;99.90;;;;;;4905991;29;20079;-77
2022/11/10 05:40:50;;;;;;;5.65;2.35;;;9.70;99.90;;;;;;4910579;29;20622;-77
2022/11/10 05:43:16;;;;;;;6.07;2.20;;;9.60;99.90;;;;;;4908775;29;20126;-77
2022/11/10 05:45:42;;;;;;;6.68;2.22;;;9.60;99.90;;;;;;4894369;29;20040;-77
2022/11/10 05:48:07;;;;;;;7.88;2.75;;;9.60;99.90;;;;;;4894065;29;20035;-77
2022/11/10 05:50:33;;;;;;;6.95;2.70;;;9.70;99.90;;;;;;4910472;29;20115;-76
2022/11/10 05:52:59;;;;;;;6.75;2.30;;;9.60;99.90;;;;;;4908225;29;20099;-76
2022/11/10 05:55:26;;;;;;;7.13;2.20;;;9.60;99.90;;;;;;4877571;29;20052;-77
2022/11/10 05:57:54;;;;;;;8.10;2.40;;;9.70;99.90;;;;;;4892067;29;20047;-77
2022/11/10 06:00:22;;;;;;;13.80;3.47;;;9.60;99.90;;;;;;4868290;29;20134;-77
2022/11/10 06:03:11;;;;;;;7.65;2.72;;;9.60;99.90;;;;;;4875592;29;20392;-77
2022/11/10 06:05:36;;;;;;;6.63;2.17;;;9.70;99.90;;;;;;4893874;29;20052;-77
2022/11/10 06:08:04;;;;;;;10.13;2.40;;;9.70;99.90;;;;;;4894369;29;20040;-79
2022/11/10 06:10:31;;;;;;;9.02;2.20;;;9.70;99.90;;;;;;4896659;29;20044;-77
2022/11/10 06:12:57;;;;;;;8.30;2.40;;;9.70;99.90;;;;;;4892637;29;20087;-76
2022/11/10 06:15:23;;;;;;;6.75;2.08;;;9.70;99.90;;;;;;4908047;29;20048;-76
2022/11/10 06:17:49;;;;;;;7.43;2.13;;;9.60;99.90;;;;;;4893784;29;20061;-76
2022/11/10 06:20:16;;;;;;;6.10;2.30;;;9.70;99.90;;;;;;4892724;29;20044;-77
2022/11/10 06:22:43;;;;;;;5.03;2.08;;;9.70;99.90;;;;;;4893184;29;20059;-77
2022/11/10 06:25:10;;;;;;;12.15;2.85;;;9.70;99.90;;;;;;4907116;29;20183;-77
2022/11/10 06:27:35;;;;;;;7.68;2.20;;;9.80;99.90;;;;;;4880154;29;20048;-78
2022/11/10 06:30:02;;;;;;;8.65;2.28;;;9.70;99.90;;;;;;4895039;29;20578;-78
2022/11/10 06:32:28;;;;;;;4.60;1.67;;;9.80;99.90;;;;;;4881383;29;20032;-77
2022/11/10 06:34:54;;;;;;;6.38;1.60;;;9.80;99.90;;;;;;4894140;29;20480;-77
2022/11/10 06:37:19;;;;;;;16.80;2.80;;;9.70;99.90;;;;;;4863392;29;20044;-77
2022/11/10 06:39:45;;;;;;;7.60;1.80;;;9.80;99.90;;;;;;4906650;29;20468;-77
2022/11/10 06:42:11;;;;;;;7.53;2.17;;;9.80;99.90;;;;;;4892501;29;20032;-78
2022/11/10 06:44:36;;;;;;;7.35;2.33;;;9.80;99.90;;;;;;4877669;29;20044;-79
2022/11/10 06:47:02;;;;;;;6.97;2.28;;;9.80;99.90;;;;;;4895438;29;20044;-80
2022/11/10 06:49:28;;;;;;;7.40;2.40;;;9.80;99.90;;;;;;4893241;29;20056;-79
2022/11/10 06:51:53;;;;;;;10.60;2.53;;;9.90;99.90;;;;;;4894576;29;20060;-79
2022/11/10 06:54:19;;;;;;;7.65;2.10;;;9.90;99.90;;;;;;4893383;29;20060;-72
2022/11/10 06:56:45;;;;;;;9.80;2.63;;;9.90;99.90;;;;;;4891489;29;20044;-70
2022/11/10 06:59:11;;;;;;;12.43;2.50;;;9.90;99.90;;;;;;4908385;29;20044;-71
2022/11/10 07:01:36;;;;;;;5.28;1.80;;;9.90;99.90;;;;;;4908662;29;20047;-71
2022/11/10 07:04:03;;;;;;;6.22;2.15;;;10.00;99.90;;;;;;4906564;29;20051;-70
2022/11/10 07:06:29;;;;;;;15.82;3.42;;;10.00;99.90;;;;;;4873908;29;20052;-69
2022/11/10 07:08:55;;;;;;;11.88;2.80;;;10.10;99.90;;;;;;4892719;29;20190;-70
2022/11/10 07:11:20;;;;;;;10.07;2.80;;;10.00;99.90;;;;;;4892975;29;20404;-77
2022/11/10 07:13:46;;;;;;;6.18;2.22;;;10.10;99.90;;;;;;4892608;29;20047;-79
2022/11/10 07:16:12;;;;;;;6.60;2.30;;;10.10;99.90;;;;;;4897964;29;20044;-79
2022/11/10 07:18:37;;;;;;;7.35;2.35;;;10.20;99.90;;;;;;4896369;29;20087;-80
2022/11/10 07:21:04;;;;;;;13.00;3.05;;;10.10;99.90;;;;;;4882702;29;20191;-80
2022/11/10 07:23:32;;;;;;;10.80;2.88;;;10.20;99.90;;;;;;4895347;29;20048;-80
2022/11/10 07:25:59;;;;;;;7.82;2.40;;;10.30;99.90;;;;;;4912264;29;20526;-79
2022/11/10 07:28:25;;;;;;;7.97;2.53;;;10.30;99.90;;;;;;4895261;29;20055;-80
2022/11/10 07:30:51;;;;;;;11.25;2.83;;;10.30;99.90;;;;;;4897263;29;20059;-80
2022/11/10 07:33:16;;;;;;;9.13;2.45;;;10.20;99.90;;;;;;4897785;29;20048;-80
2022/11/10 07:35:42;;;;;;;10.27;3.20;;;10.20;99.90;;;;;;4898804;29;20044;-79
2022/11/10 07:38:10;;;;;;;7.60;2.17;;;10.20;99.90;;;;;;4899226;29;20043;-79
2022/11/10 07:40:37;;;;;;;9.10;2.83;;;10.30;99.90;;;;;;4884190;29;20052;-79
2022/11/10 07:43:03;;;;;;;6.25;2.17;;;10.20;99.90;;;;;;4899915;29;20036;-80
2022/11/10 07:45:29;;;;;;;6.72;2.22;;;10.20;99.90;;;;;;4900810;29;20477;-81
2022/11/10 07:48:03;;;;;;;8.90;2.53;;;10.20;99.90;;;;;;4900724;29;20048;-80
2022/11/10 07:50:29;;;;;;;9.40;2.35;;;10.20;99.90;;;;;;4901009;29;20393;-78
2022/11/10 07:53:08;;;;;;;8.75;2.45;;;10.20;99.90;;;;;;4900313;29;20064;-79
2022/11/10 07:55:35;;;;;;;7.22;1.83;;;10.20;99.90;;;;;;4900604;29;20187;-79
2022/11/10 07:58:01;;;;;;;6.68;1.90;;;10.20;99.90;;;;;;4900463;29;20563;-78
2022/11/10 08:00:27;;;;;;;8.90;2.20;;;10.20;99.90;;;;;;4899459;29;20048;-79
2022/11/10 08:02:52;;;;;;;7.70;2.05;;;10.20;99.90;;;;;;4900545;29;20074;-79
2022/11/10 08:05:18;;;;;;;7.47;1.98;;;10.20;99.90;;;;;;4900559;29;20059;-79
2022/11/10 08:07:44;;;;;;;11.50;3.05;;;10.30;99.90;;;;;;4900482;29;20052;-79
2022/11/10 08:10:09;;;;;;;9.23;2.38;;;10.30;99.90;;;;;;4899027;29;20044;-79
2022/11/10 08:12:35;;;;;;;9.90;2.58;;;10.30;99.90;;;;;;4900591;29;20051;-79
2022/11/10 08:15:02;;;;;;;11.88;2.72;;;10.40;99.90;;;;;;4900871;29;20051;-78
2022/11/10 08:17:28;;;;;;;13.15;3.38;;;10.40;99.90;;;;;;4900288;29;20435;-79
2022/11/10 08:19:53;;;;;;;11.50;2.72;;;10.40;99.90;;;;;;4917748;29;20048;-78
2022/11/10 08:22:19;;;;;;;10.07;3.03;;;10.50;99.90;;;;;;4900831;29;20044;-78
2022/11/10 08:24:45;;;;;;;12.63;2.88;;;10.60;99.90;;;;;;4900970;29;20044;-78
2022/11/10 08:27:11;;;;;;;11.23;2.85;;;10.60;99.90;;;;;;4899817;29;20052;-79
2022/11/10 08:29:36;;;;;;;7.55;2.47;;;10.70;99.90;;;;;;4898733;29;20412;-79
2022/11/10 08:32:02;;;;;;;11.38;2.80;;;10.70;99.90;;;;;;4900554;29;20070;-79
2022/11/10 08:34:28;;;;;;;12.00;3.33;;;10.80;99.90;;;;;;4900984;29;20104;-78
2022/11/10 08:36:53;;;;;;;9.13;2.92;;;10.90;99.90;;;;;;4901072;29;20063;-79
2022/11/10 08:39:19;;;;;;;11.75;3.33;;;10.90;99.90;;;;;;4899888;29;20496;-80
2022/11/10 08:41:45;;;;;;;8.38;2.45;;;10.90;99.90;;;;;;4899767;29;20432;-78
2022/11/10 08:44:12;;;;;;;12.48;3.42;;;11.00;99.90;;;;;;4900465;29;20080;-79
2022/11/10 08:46:37;;;;;;;14.95;3.33;;;11.10;99.90;;;;;;4900574;29;20114;-79
2022/11/10 08:49:03;;;;;;;14.25;3.60;;;11.10;99.90;;;;;;4916227;29;20670;-80
2022/11/10 08:51:29;;;;;;;12.40;2.97;;;11.20;99.90;;;;;;4899744;29;20047;-79
2022/11/10 08:53:55;;;;;;;12.75;3.00;;;11.20;99.90;;;;;;4899271;29;20071;-79
2022/11/10 08:56:20;;;;;;;11.75;2.92;;;11.20;99.90;;;;;;4899905;29;20048;-79
2022/11/10 08:58:46;;;;;;;15.32;3.20;;;11.20;99.90;;;;;;4899839;29;20123;-79
2022/11/10 09:01:12;;;;;;;12.27;2.65;;;11.30;99.90;;;;;;4899277;29;20404;-78
2022/11/10 09:03:37;;;;;;;9.27;2.42;;;11.30;99.90;;;;;;4899488;29;20127;-78
2022/11/10 09:06:03;;;;;;;11.10;2.92;;;11.30;99.90;;;;;;4883758;29;20051;-78
2022/11/10 09:08:32;;;;;;;12.65;2.90;;;11.50;99.90;;;;;;4899482;29;20062;-80
2022/11/10 09:11:02;;;;;;;10.32;2.92;;;11.50;99.90;;;;;;4899231;29;20050;-80
2022/11/10 09:13:27;;;;;;;14.52;3.35;;;11.60;99.90;;;;;;4899518;29;20135;-79
2022/11/10 09:15:53;;;;;;;11.23;2.85;;;11.60;99.90;;;;;;4899181;29;20139;-79
2022/11/10 09:18:19;;;;;;;18.92;3.95;;;11.70;99.90;;;;;;4883963;29;20052;-79
2022/11/10 09:20:44;;;;;;;15.90;3.33;;;11.70;99.90;;;;;;4899102;29;20055;-80
2022/11/10 09:23:16;;;;;;;10.30;2.80;;;11.80;99.90;;;;;;4899049;29;20139;-79
2022/11/10 09:25:48;;;;;;;11.95;2.92;;;11.80;99.90;;;;;;4883534;29;20106;-80
2022/11/10 09:28:15;;;;;;;12.40;3.33;;;11.90;99.90;;;;;;4883781;29;20453;-80
2022/11/10 09:30:43;;;;;;;14.13;3.22;;;11.90;99.90;;;;;;4915964;29;20123;-79
2022/11/10 09:33:09;;;;;;;12.73;3.58;;;12.00;99.90;;;;;;4899299;29;20047;-80
2022/11/10 09:35:35;;;;;;;15.55;3.90;;;12.10;99.90;;;;;;4883205;29;20143;-79
2022/11/10 09:38:00;;;;;;;12.32;3.38;;;12.20;99.90;;;;;;4899150;29;20052;-79
2022/11/10 09:40:42;;;;;;;16.67;3.95;;;12.10;99.90;;;;;;4898575;29;20467;-81
2022/11/10 09:43:16;;;;;;;17.77;4.20;;;12.20;99.90;;;;;;4899661;29;20396;-80
2022/11/10 09:45:45;;;;;;;15.07;3.90;;;12.30;99.90;;;;;;4898995;29;20123;-80
2022/11/10 09:48:16;;;;;;;9.07;3.05;;;12.30;99.90;;;;;;4916012;29;20614;-80
2022/11/10 09:50:48;;;;;;;13.52;4.20;;;12.30;99.90;;;;;;4898545;29;20044;-81
2022/11/10 09:53:23;;;;;;;16.10;4.07;;;12.20;99.90;;;;;;4898373;29;20466;-80
2022/11/10 09:55:55;;;;;;;10.00;4.30;;;12.20;99.90;;;;;;4898505;29;20135;-79
2022/11/10 09:58:25;;;;;;;14.30;4.90;;;12.20;99.90;;;;;;4898818;29;20074;-79
2022/11/10 10:01:15;;;;;;;14.32;5.20;;;12.20;99.90;;;;;;4898332;29;20071;-79
2022/11/10 10:03:51;;;;;;;19.00;6.03;;;12.10;99.90;;;;;;4898331;29;20043;-78
2022/11/10 10:06:19;;;;;;;17.88;6.50;;;12.20;99.90;;;;;;4898108;29;20584;-79
2022/11/10 10:09:02;;;;;;;12.52;5.13;;;12.20;99.90;;;;;;4898211;29;20484;-79
2022/11/10 10:11:46;;;;;;;10.60;4.70;;;12.30;99.90;;;;;;4898535;29;20055;-79
2022/11/10 10:14:33;;;;;;;19.75;5.93;;;12.30;99.90;;;;;;4898079;29;20088;-80
2022/11/10 10:17:00;;;;;;;13.93;4.47;;;12.40;99.90;;;;;;4882263;29;20488;-80
2022/11/10 10:19:43;;;;;;;14.02;4.93;;;12.50;99.90;;;;;;4898015;29;20056;-80
2022/11/10 10:22:18;;;;;;;17.05;5.30;;;12.60;99.90;;;;;;4896753;29;20048;-79
2022/11/10 10:24:43;;;;;;;12.90;4.40;;;12.50;99.90;;;;;;4898083;29;20075;-80
2022/11/10 10:27:17;;;;;;;10.20;3.60;;;12.60;99.90;;;;;;4898154;29;20501;-81
2022/11/10 10:29:45;;;;;;;10.98;4.10;;;12.70;99.90;;;;;;4898099;29;20400;-80
2022/11/10 10:32:13;;;;;;;11.48;3.85;;;12.60;99.90;;;;;;4897747;29;20238;-80
2022/11/10 10:34:40;;;;;;;12.55;4.80;;;12.60;99.90;;;;;;4898058;29;20085;-80
2022/11/10 10:37:23;;;;;;;11.13;4.47;;;12.50;99.90;;;;;;4897909;29;20087;-79
2022/11/10 10:39:54;;;;;;;14.23;4.80;;;12.60;99.90;;;;;;4898398;29;20198;-80
2022/11/10 10:42:34;;;;;;;12.02;4.88;;;12.70;99.90;;;;;;4898291;29;20404;-79
2022/11/10 10:45:21;;;;;;;17.08;5.30;;;12.70;99.90;;;;;;4897996;29;20055;-80
2022/11/10 10:47:49;;;;;;;13.80;4.20;;;12.90;99.90;;;;;;4897422;29;20476;-79
2022/11/10 10:50:18;;;;;;;15.55;4.05;;;12.90;99.90;;;;;;4882391;29;20459;-79
2022/11/10 10:52:44;;;;;;;13.40;4.18;;;12.90;99.90;;;;;;4881729;29;20075;-79
2022/11/10 10:55:12;;;;;;;13.10;4.18;;;13.00;99.90;;;;;;4881684;29;20052;-79
2022/11/10 10:57:50;;;;;;;17.02;4.70;;;13.00;99.90;;;;;;4881776;29;20536;-79
2022/11/10 11:00:22;;;;;;;9.88;3.67;;;13.00;99.90;;;;;;4896892;29;20056;-78
2022/11/10 11:03:22;;;;;;;11.75;4.18;;;12.90;99.90;;;;;;4897564;29;20040;-79
2022/11/10 11:06:00;;;;;;;12.05;4.20;;;13.00;99.90;;;;;;4894501;29;20123;-80
2022/11/10 11:08:26;;;;;;;10.40;4.50;;;13.10;99.90;;;;;;4895937;29;20040;-80
2022/11/10 11:10:52;;;;;;;12.43;3.97;;;13.20;99.90;;;;;;4912142;29;20057;-79
2022/11/10 11:13:28;;;;;;;18.00;4.03;;;13.20;99.90;;;;;;4898798;29;20052;-79
2022/11/10 11:15:58;;;;;;;;;;;13.20;99.90;;;;;;4915216;29;20059;-79
2022/11/10 11:18:27;;;;;;;10.75;3.33;;;13.10;99.90;;;;;;4885282;29;19923;-79
2022/11/10 11:21:07;;;;;;;11.20;3.58;;;13.10;99.90;;;;;;4898213;29;20515;-81
2022/11/10 11:23:58;;;;;;;14.30;3.83;;;13.10;99.90;;;;;;4914561;29;20052;-80
2022/11/10 11:26:28;;;;;;;10.10;3.13;;;13.10;99.90;;;;;;4900776;29;20052;-80
2022/11/10 11:29:19;;;;;;;11.82;3.35;;;13.10;99.90;;;;;;4895936;29;20492;-80
2022/11/10 11:32:00;;;;;;;12.45;3.45;;;13.10;99.90;;;;;;4899966;29;20044;-80
2022/11/10 11:34:49;;;;;;;11.90;3.30;;;13.00;99.90;;;;;;4878818;29;20107;-80
2022/11/10 11:37:31;;;;;;;11.32;3.08;;;13.00;99.90;;;;;;4889199;29;20508;-82
2022/11/10 11:40:25;;;;;;;11.77;3.28;;;13.10;99.90;;;;;;4913670;29;20055;-80
2022/11/10 11:43:10;;;;;;;9.25;2.88;;;13.10;99.90;;;;;;4893953;29;20080;-79
2022/11/10 11:45:48;;;;;;;12.05;3.28;;;13.10;99.90;;;;;;4898399;29;20059;-79
2022/11/10 11:48:42;;;;;;;10.48;2.60;;;13.10;99.90;;;;;;4898315;29;20366;-78
2022/11/10 11:51:40;;;;;;;9.95;3.00;;;13.10;99.90;;;;;;4892985;29;20202;-79
2022/11/10 11:54:21;;;;;;;11.63;2.90;;;13.20;99.90;;;;;;4855004;29;1096041;-79
2022/11/10 11:56:49;;;;;;;11.60;3.03;;;13.20;99.90;;;;;;4900559;29;20151;-80
2022/11/10 11:59:43;;;;;;;7.90;2.70;;;13.30;99.90;;;;;;4900134;29;20087;-78
2022/11/10 12:02:33;;;;;;;10.13;2.60;;;13.30;99.90;;;;;;4885441;29;20151;-77
2022/11/10 12:05:35;;;;;;;13.88;3.13;;;13.40;99.90;;;;;;4900710;29;20527;-78
2022/11/10 12:08:16;;;;;;;15.00;3.15;;;13.40;99.90;;;;;;4900887;29;20079;-78
2022/11/10 12:11:04;;;;;;;10.30;3.13;;;13.50;99.90;;;;;;4900455;29;20059;-78
2022/11/10 12:13:45;;;;;;;10.25;2.55;;;13.40;99.90;;;;;;4884782;29;20063;-76
2022/11/10 12:16:49;;;;;;;14.60;2.67;;;13.50;99.90;;;;;;4900130;29;20484;-78
2022/11/10 12:19:37;;;;;;;14.45;2.50;;;13.50;99.90;;;;;;4890125;29;20064;-78
2022/11/10 12:22:12;;;;;;;;;;;13.50;99.90;;;;;;4900916;29;20047;-76
2022/11/10 12:25:07;;;;;;;12.88;2.50;;;13.60;99.90;;;;;;4915511;29;19923;-78
2022/11/10 12:27:38;;;;;;;16.90;2.75;;;13.70;99.90;;;;;;4883277;29;20060;-78
2022/11/10 12:30:12;;;;;;;10.00;2.58;;;13.60;99.90;;;;;;4900068;29;20067;-78
2022/11/10 12:33:05;;;;;;;10.60;2.13;;;13.70;99.90;;;;;;4884965;29;20392;-78
2022/11/10 12:35:38;;;;;;;11.75;3.28;;;13.70;99.90;;;;;;4900617;29;20189;-79
2022/11/10 12:38:12;;;;;;;9.80;2.53;;;13.70;99.90;;;;;;4900732;29;20135;-78
2022/11/10 12:40:56;;;;;;;11.40;2.70;;;13.70;99.90;;;;;;4900465;29;20051;-78
2022/11/10 12:43:34;;;;;;;15.48;2.83;;;13.70;99.90;;;;;;4900701;29;20048;-78
2022/11/10 12:46:04;;;;;;;12.93;2.63;;;13.70;99.90;;;;;;4899622;29;20054;-77
2022/11/10 12:48:51;;;;;;;8.23;1.98;;;13.70;99.90;;;;;;4900410;29;20445;-79
2022/11/10 12:51:29;;;;;;;11.07;2.50;;;13.70;99.90;;;;;;4899928;29;20036;-78
2022/11/10 12:53:54;;;;;;;11.75;2.85;;;13.70;99.90;;;;;;4899669;29;20068;-78
2022/11/10 12:56:26;;;;;;;9.77;1.95;;;13.70;99.90;;;;;;4899882;29;20048;-77
2022/11/10 12:59:20;;;;;;;11.45;2.38;;;13.70;99.90;;;;;;4899519;29;20155;-77
2022/11/10 13:01:55;;;;;;;10.13;2.47;;;13.70;99.90;;;;;;4899889;29;20055;-78
2022/11/10 13:04:21;;;;;;;12.88;2.38;;;13.70;99.90;;;;;;4899809;29;20043;-78
2022/11/10 13:06:48;;;;;;;11.45;2.10;;;13.70;99.90;;;;;;4899791;29;20535;-79
2022/11/10 13:09:31;;;;;;;6.82;1.88;;;13.70;99.90;;;;;;4899736;29;20629;-78
2022/11/10 13:12:19;;;;;;;10.25;3.38;;;13.70;99.90;;;;;;4899898;29;20467;-79
2022/11/10 13:14:46;;;;;;;9.13;2.17;;;13.60;99.90;;;;;;4884192;29;20131;-78
2022/11/10 13:17:27;;;;;;;13.73;2.55;;;13.60;99.90;;;;;;4899550;29;20051;-77